Chazy, NY (12921)

5:39 AM EDT on March 28, 2015 (GMT -0400)
Chazy, NY | | Change Station
CLOSE
Current Station
Personal Weather Station
Location: Chazy, NY
Elevation: 167 ft
Nearby Weather Stations

Elev 167 ft 44.88 °N, 73.43 °W | Updated 3 seconds ago

Overcast
Overcast
18.6 °F
Feels Like 7 °F
N
10.0
Wind Variable Wind from NNE
Gusts 14.0 mph

Today
High -- | Low -- °F
--% Chance of Precip.
Yesterday
High -- | Low -- °F
Precip. -- in
6:42 AM 7:16 PM
First Quarter, 61% visible
Pressure 29.95 in
Visibility 10.0 miles
Clouds Overcast 4200 ft
Windchill 7 °F
Dew Point 16 °F
Humidity 78%
Rainfall 0.00 in
Snow Depth Not available.
UV 0 out of 12
Pollen .50 out of 12
Air Quality Not available.
Flu Activity Not available.
METAR KPBG 280853Z AUTO 34013KT 10SM OVC042 M06/M11 A2994 RMK AO2 SLP141 60000 T10561111 53005

More Conditions Fewer Conditions

Pressure 29.95 in
Visibility 10.0 miles
Clouds Overcast 4200 ft
Windchill 7 °F
Dew Point 16 °F
Humidity 78%
Rainfall 0.00 in
Snow Depth Not available.
UV 0 out of 12
Pollen .50 out of 12
Air Quality Not available.
Flu Activity Not available.
METAR KPBG 280853Z AUTO 34013KT 10SM OVC042 M06/M11 A2994 RMK AO2 SLP141 60000 T10561111 53005

More Conditions Fewer Conditions

10-Day Weather Forecast

Almanac

Astronomy

Mar. 28, 2015 Rise Set
Actual Time
Civil Twilight
Nautical Twilight
Astronomical Twilight
Moon
Length of Visible Light
Length of Day
Tomorrow will be .
, % of the Moon is Illuminated

Today's Extremes

State Highs State Lows

Community

WunderPhotos

Upload Photos

1,808,939 photos uploaded!

WunderBlogs® & News

Nearby

Air Quality

  Air Quality AQ Index Pollutant
Not available.

Snow Depth

Station Depth Elevation

Earthquake Activity

City Distance Mag. Time & Date
Minimum magnitude displayed is 2.5.

Coastal Water Temperatures

Place Temperature

Stations

Nearby Weather Stations

Station Location Temp. Windchill Dew Point Humidity Wind Precip. Elev Updated Type